Fort Branch, Indiana
Current Conditions -  °F | °C
As of 10:01 AM on Monday 24 Nov 2014 (Local Time) from KEVV Reporting Station
Overcast Overcast  
Wind Chill: 38°   Ceiling: 3400
Heat Index: 45°   Visibility: 10mi
Dew Point: 35°   Wind: 16mph
Humidity: 68%   Direction: 240°WSW
Pressure: 29.68"   Gusts: 30mph
Location:  38.25°N, 87.58°W
Report Text: KEVV 241601Z 24014G26KT 10SM SCT026 OVC034 07/02 A2968 RMK AO2 PK WND 24026/1556 T00720017
Loading
Personal Weather Stations






























Interactive Weather Map New forecast layout! Learn more

10-Day Weather Forecast

Advertisements
Track Severe Weather on mobile